createdAt,value
2019-01-03T00:00:40.614Z,6.10
2019-01-03T00:01:40.606Z,6.10
2019-01-03T00:02:40.424Z,5.90
2019-01-03T00:03:40.296Z,6.10
2019-01-03T00:04:40.191Z,6.70
2019-01-03T00:05:40.086Z,6.20
2019-01-03T00:06:39.980Z,6.20
2019-01-03T00:07:39.891Z,5.80
2019-01-03T00:08:39.874Z,7.20
2019-01-03T00:09:39.664Z,5.30
2019-01-03T00:10:39.557Z,6.70
2019-01-03T00:11:39.469Z,6.10
2019-01-03T00:12:39.374Z,6.70
2019-01-03T00:13:39.238Z,6.50
2019-01-03T00:14:39.136Z,7.00
2019-01-03T00:15:39.130Z,8.20
2019-01-03T00:16:38.923Z,5.70
2019-01-03T00:17:38.836Z,5.80
2019-01-03T00:18:38.718Z,7.80
2019-01-03T00:19:38.609Z,6.30
2019-01-03T00:20:38.502Z,6.60
2019-01-03T00:21:38.397Z,7.30
2019-01-03T00:22:38.406Z,7.00
2019-01-03T00:23:38.184Z,6.80
2019-01-03T00:24:38.082Z,5.30
2019-01-03T00:25:37.975Z,7.00
2019-01-03T00:26:37.868Z,6.00
2019-01-03T00:27:37.782Z,7.70
2019-01-03T00:28:37.660Z,7.40
2019-01-03T00:29:37.676Z,6.50
2019-01-03T00:30:37.447Z,7.50
2019-01-03T00:31:37.340Z,6.60
2019-01-03T00:32:37.255Z,6.80
2019-01-03T00:33:37.130Z,6.30
2019-01-03T00:34:37.029Z,6.80
2019-01-03T00:35:36.919Z,8.00
2019-01-03T00:36:36.924Z,7.30
2019-01-03T00:37:36.725Z,5.80
2019-01-03T00:38:36.605Z,8.20
2019-01-03T00:39:36.500Z,6.30
2019-01-03T00:40:36.397Z,6.80
2019-01-03T00:41:36.287Z,9.80
2019-01-03T00:42:36.198Z,6.10
2019-01-03T00:43:36.177Z,6.10
2019-01-03T00:44:35.974Z,7.50
2019-01-03T00:45:35.874Z,6.20
2019-01-03T00:46:35.765Z,8.30
2019-01-03T00:47:35.692Z,8.10
2019-01-03T00:48:35.548Z,7.70
2019-01-03T00:49:35.444Z,6.80
2019-01-03T00:50:35.440Z,6.80
2019-01-03T00:51:35.236Z,6.70
2019-01-03T00:52:35.146Z,8.10
2019-01-03T00:53:35.023Z,7.00
2019-01-03T00:54:34.918Z,5.90
2019-01-03T00:55:34.813Z,7.30
2019-01-03T00:56:34.710Z,9.00
2019-01-03T00:57:34.620Z,7.40
2019-01-03T00:58:34.495Z,6.60
2019-01-03T00:59:34.390Z,8.10
2019-01-03T01:00:34.288Z,7.00
2019-01-03T01:01:34.184Z,8.30
2019-01-03T01:02:34.093Z,7.20
2019-01-03T01:03:33.970Z,6.10
2019-01-03T01:04:33.966Z,8.70
2019-01-03T01:05:34.328Z,6.90
2019-01-03T01:06:33.659Z,9.10
2019-01-03T01:07:33.554Z,6.90
2019-01-03T01:08:33.465Z,7.70
2019-01-03T01:09:33.346Z,7.10
2019-01-03T01:10:33.358Z,6.00
2019-01-03T01:11:33.129Z,7.70
2019-01-03T01:12:33.028Z,8.20
2019-01-03T01:13:32.936Z,7.70
2019-01-03T01:14:32.810Z,4.30
2019-01-03T01:15:32.709Z,6.10
2019-01-03T01:16:32.605Z,7.10
2019-01-03T01:17:32.495Z,6.60
2019-01-03T01:18:32.408Z,6.40
2019-01-03T01:19:32.284Z,6.50
2019-01-03T01:20:32.183Z,6.50
2019-01-03T01:21:32.078Z,5.60
2019-01-03T01:22:31.973Z,6.60
2019-01-03T01:23:31.898Z,5.80
2019-01-03T01:24:31.758Z,7.10
2019-01-03T01:25:31.656Z,6.40
2019-01-03T01:26:31.549Z,8.30
2019-01-03T01:27:31.444Z,7.60
2019-01-03T01:28:31.352Z,7.70
2019-01-03T01:29:31.232Z,8.80
2019-01-03T01:30:31.127Z,7.00
2019-01-03T01:31:31.023Z,7.00
2019-01-03T01:32:30.915Z,9.60
2019-01-03T01:33:30.829Z,6.80
2019-01-03T01:34:30.706Z,8.00
2019-01-03T01:35:30.603Z,6.00
2019-01-03T01:36:30.496Z,6.50
2019-01-03T01:37:30.389Z,7.30
2019-01-03T01:38:30.300Z,6.40
2019-01-03T01:39:30.181Z,6.60
2019-01-03T01:40:30.074Z,5.10
2019-01-03T01:41:29.970Z,6.60
2019-01-03T01:42:29.862Z,9.70
2019-01-03T01:43:29.771Z,6.30
2019-01-03T01:44:29.647Z,7.30
2019-01-03T01:45:29.542Z,7.20
2019-01-03T01:46:29.442Z,9.50
2019-01-03T01:47:29.335Z,8.60
2019-01-03T01:48:29.244Z,7.40
2019-01-03T01:49:29.123Z,8.00
2019-01-03T01:50:29.014Z,7.10
2019-01-03T01:51:28.914Z,6.50
2019-01-03T01:52:28.807Z,6.70
2019-01-03T01:53:28.720Z,8.60
2019-01-03T01:54:28.595Z,8.50
2019-01-03T01:55:28.490Z,8.20
2019-01-03T01:56:28.391Z,9.50
2019-01-03T01:57:28.281Z,7.80
2019-01-03T01:58:28.186Z,8.40
2019-01-03T01:59:28.070Z,8.50
2019-01-03T02:00:27.963Z,8.50
2019-01-03T02:01:27.855Z,7.50
2019-01-03T02:02:27.747Z,7.60
2019-01-03T02:03:27.661Z,9.30
2019-01-03T02:04:27.537Z,6.30
2019-01-03T02:05:27.431Z,8.80
2019-01-03T02:06:27.330Z,9.00
2019-01-03T02:07:27.221Z,7.40
2019-01-03T02:08:27.134Z,7.60
2019-01-03T02:09:27.009Z,9.30
2019-01-03T02:10:26.906Z,6.90
2019-01-03T02:11:26.801Z,6.30
2019-01-03T02:12:26.697Z,9.70
2019-01-03T02:13:26.605Z,9.80
2019-01-03T02:14:26.486Z,7.10
2019-01-03T02:15:26.375Z,8.50
2019-01-03T02:16:26.273Z,7.70
2019-01-03T02:17:26.178Z,7.00
2019-01-03T02:18:26.081Z,7.30
2019-01-03T02:19:25.953Z,7.70
2019-01-03T02:20:25.851Z,7.90
2019-01-03T02:21:25.742Z,7.10
2019-01-03T02:22:25.639Z,7.40
2019-01-03T02:23:25.550Z,6.70
2019-01-03T02:24:25.441Z,9.30
2019-01-03T02:25:25.322Z,8.40
2019-01-03T02:26:25.237Z,6.30
2019-01-03T02:27:25.112Z,8.60
2019-01-03T02:28:25.023Z,8.50
2019-01-03T02:29:24.900Z,6.40
2019-01-03T02:30:24.795Z,7.20
2019-01-03T02:31:24.690Z,8.20
2019-01-03T02:32:24.588Z,11.80
2019-01-03T02:33:24.501Z,6.60
2019-01-03T02:34:24.375Z,8.60
2019-01-03T02:35:24.267Z,8.90
2019-01-03T02:36:24.162Z,7.20
2019-01-03T02:37:24.058Z,6.70
2019-01-03T02:38:23.967Z,7.70
2019-01-03T02:39:23.849Z,7.60
2019-01-03T02:40:23.741Z,6.90
2019-01-03T02:41:23.636Z,6.30
2019-01-03T02:42:23.529Z,8.70
2019-01-03T02:43:23.444Z,9.10
2019-01-03T02:44:23.319Z,7.00
2019-01-03T02:45:23.212Z,7.10
2019-01-03T02:46:23.112Z,7.70
2019-01-03T02:47:23.009Z,7.10
2019-01-03T02:48:22.914Z,7.80
2019-01-03T02:49:22.798Z,8.90
2019-01-03T02:50:22.687Z,6.20
2019-01-03T02:51:22.585Z,7.00
2019-01-03T02:52:22.472Z,7.80
2019-01-03T02:53:22.388Z,6.20
2019-01-03T02:54:22.268Z,7.20
2019-01-03T02:55:22.172Z,5.50
2019-01-03T02:56:22.054Z,9.40
2019-01-03T02:57:21.946Z,7.40
2019-01-03T02:58:23.587Z,9.20
2019-01-03T02:59:21.753Z,8.90
2019-01-03T03:00:21.634Z,5.90
2019-01-03T03:01:21.526Z,7.50
2019-01-03T03:02:21.418Z,6.00
2019-01-03T03:03:21.702Z,7.60
2019-01-03T03:04:21.229Z,7.00
2019-01-03T03:05:21.111Z,5.70
2019-01-03T03:06:21.006Z,4.80
2019-01-03T03:07:20.891Z,6.20
2019-01-03T03:08:20.792Z,6.40
2019-01-03T03:09:20.723Z,7.80
2019-01-03T03:10:20.686Z,6.10
2019-01-03T03:11:20.519Z,9.50
2019-01-03T03:12:20.368Z,6.90
2019-01-03T03:13:20.267Z,6.90
2019-01-03T03:14:20.174Z,6.40
2019-01-03T03:15:20.048Z,9.00
2019-01-03T03:16:19.946Z,6.00
2019-01-03T03:17:19.942Z,7.50
2019-01-03T03:18:19.737Z,6.60
2019-01-03T03:19:19.645Z,5.80
2019-01-03T03:20:19.533Z,7.90
2019-01-03T03:21:19.420Z,6.90
2019-01-03T03:22:19.310Z,6.30
2019-01-03T03:23:19.209Z,7.60
2019-01-03T03:24:19.218Z,7.10
2019-01-03T03:25:18.996Z,7.40
2019-01-03T03:26:18.892Z,5.90
2019-01-03T03:27:18.788Z,9.50
2019-01-03T03:28:18.682Z,7.80
2019-01-03T03:29:18.589Z,6.20
2019-01-03T03:30:18.513Z,9.30
2019-01-03T03:31:18.468Z,7.70
2019-01-03T03:32:18.260Z,6.90
2019-01-03T03:33:18.156Z,7.70
2019-01-03T03:34:18.066Z,6.30
2019-01-03T03:35:17.940Z,7.00
2019-01-03T03:36:17.841Z,7.50
2019-01-03T03:37:17.731Z,6.90
2019-01-03T03:38:17.730Z,6.30
2019-01-03T03:39:17.537Z,8.00
2019-01-03T03:40:17.432Z,7.70
2019-01-03T03:41:17.313Z,7.60
2019-01-03T03:42:17.207Z,8.90
2019-01-03T03:43:17.102Z,7.00
2019-01-03T03:44:17.013Z,6.80
2019-01-03T03:45:16.993Z,7.40
2019-01-03T03:46:16.788Z,5.70
2019-01-03T03:47:16.683Z,5.30
2019-01-03T03:48:16.577Z,7.60
2019-01-03T03:49:16.491Z,5.70
2019-01-03T03:50:16.365Z,8.20
2019-01-03T03:51:16.261Z,6.60
2019-01-03T03:52:16.254Z,6.40
2019-01-03T03:53:16.051Z,6.80
2019-01-03T03:54:15.958Z,8.10
2019-01-03T03:55:15.838Z,6.90
2019-01-03T03:56:15.735Z,5.80
2019-01-03T03:57:15.626Z,7.60
2019-01-03T03:58:15.536Z,7.40
2019-01-03T03:59:15.546Z,6.90
2019-01-03T04:00:15.313Z,6.40
2019-01-03T04:01:15.212Z,5.60
2019-01-03T04:02:15.101Z,6.90
2019-01-03T04:03:15.011Z,8.20
2019-01-03T04:04:14.909Z,8.90
2019-01-03T04:05:14.789Z,6.80
2019-01-03T04:06:14.803Z,6.70
2019-01-03T04:07:14.577Z,5.70
2019-01-03T04:08:14.474Z,7.30
2019-01-03T04:09:14.386Z,6.90
2019-01-03T04:10:14.259Z,8.30
2019-01-03T04:11:14.155Z,6.40
2019-01-03T04:12:14.192Z,6.30
2019-01-03T04:13:13.945Z,7.50
2019-01-03T04:14:13.854Z,5.50
2019-01-03T04:15:13.750Z,5.90
2019-01-03T04:16:13.632Z,7.40
2019-01-03T04:17:13.531Z,9.20
2019-01-03T04:18:13.417Z,5.50
2019-01-03T04:19:13.337Z,5.80
2019-01-03T04:20:13.212Z,5.60
2019-01-03T04:21:13.107Z,6.80
2019-01-03T04:22:12.997Z,6.10
2019-01-03T04:23:12.893Z,7.10
2019-01-03T04:24:12.810Z,7.40
2019-01-03T04:25:12.683Z,6.50
2019-01-03T04:26:12.579Z,6.50
2019-01-03T04:27:12.479Z,8.00
2019-01-03T04:28:12.371Z,7.20
2019-01-03T04:29:12.286Z,8.50
2019-01-03T04:30:12.156Z,9.00
2019-01-03T04:31:12.051Z,7.80
2019-01-03T04:32:11.950Z,7.10
2019-01-03T04:33:11.861Z,7.80
2019-01-03T04:34:11.752Z,5.70
2019-01-03T04:35:11.632Z,8.10
2019-01-03T04:36:11.529Z,7.00
2019-01-03T04:37:11.421Z,8.80
2019-01-03T04:38:11.313Z,7.80
2019-01-03T04:39:11.228Z,8.70
2019-01-03T04:40:11.101Z,9.30
2019-01-03T04:41:11.003Z,6.90
2019-01-03T04:42:10.934Z,7.60
2019-01-03T04:43:10.789Z,6.80
2019-01-03T04:44:10.686Z,6.20
2019-01-03T04:45:10.592Z,7.90
2019-01-03T04:46:10.474Z,7.40
2019-01-03T04:47:10.369Z,5.70
2019-01-03T04:48:10.270Z,7.20
2019-01-03T04:49:10.165Z,7.00
2019-01-03T04:50:10.069Z,6.80
2019-01-03T04:51:09.949Z,7.50
2019-01-03T04:52:09.840Z,8.20
2019-01-03T04:53:09.738Z,7.70
2019-01-03T04:54:09.637Z,7.10
2019-01-03T04:55:09.543Z,7.10
2019-01-03T04:56:09.420Z,6.70
2019-01-03T04:57:09.320Z,7.40
2019-01-03T04:58:09.212Z,7.00
2019-01-03T04:59:09.154Z,7.50
2019-01-03T05:00:09.020Z,9.10
2019-01-03T05:01:08.898Z,6.80
2019-01-03T05:02:08.792Z,8.20
2019-01-03T05:03:08.685Z,4.90
2019-01-03T05:04:08.582Z,6.10
2019-01-03T05:05:08.491Z,6.70
2019-01-03T05:06:08.372Z,6.80
2019-01-03T05:07:08.263Z,6.30
2019-01-03T05:08:08.162Z,6.30
2019-01-03T05:09:08.054Z,7.40
2019-01-03T05:10:07.989Z,10.80
2019-01-03T05:11:07.845Z,13.00
2019-01-03T05:12:07.738Z,11.10
2019-01-03T05:13:07.631Z,11.20
2019-01-03T05:14:07.530Z,12.60
2019-01-03T05:15:07.439Z,12.90
2019-01-03T05:16:07.315Z,10.30
2019-01-03T05:17:07.210Z,9.10
2019-01-03T05:18:07.108Z,11.20
2019-01-03T05:19:07.003Z,9.40
2019-01-03T05:20:06.914Z,7.90
2019-01-03T05:21:06.791Z,9.90
2019-01-03T05:22:06.683Z,10.30
2019-01-03T05:23:06.581Z,10.00
2019-01-03T05:24:06.476Z,8.80
2019-01-03T05:25:06.385Z,9.80
2019-01-03T05:26:06.273Z,6.50
2019-01-03T05:27:06.162Z,8.40
2019-01-03T05:28:06.052Z,7.60
2019-01-03T05:29:05.947Z,8.30
2019-01-03T05:30:05.862Z,7.40
2019-01-03T05:31:05.740Z,7.60
2019-01-03T05:32:05.632Z,6.30
2019-01-03T05:33:05.529Z,5.80
2019-01-03T05:34:05.428Z,5.80
2019-01-03T05:35:05.334Z,7.50
2019-01-03T05:36:05.214Z,5.90
2019-01-03T05:37:05.110Z,7.50
2019-01-03T05:38:05.004Z,7.00
2019-01-03T05:39:04.900Z,7.10
2019-01-03T05:40:04.812Z,5.40
2019-01-03T05:41:05.199Z,7.80
2019-01-03T05:42:04.582Z,8.50
2019-01-03T05:43:04.478Z,6.00
2019-01-03T05:44:04.374Z,7.40
2019-01-03T05:45:04.282Z,6.10
2019-01-03T05:46:04.159Z,6.10
2019-01-03T05:47:04.056Z,6.20
2019-01-03T05:48:03.953Z,8.30
2019-01-03T05:49:03.851Z,8.10
2019-01-03T05:50:03.858Z,7.20
2019-01-03T05:51:03.637Z,5.80
2019-01-03T05:52:03.533Z,7.70
2019-01-03T05:53:03.428Z,6.90
2019-01-03T05:54:03.319Z,6.70
2019-01-03T05:55:03.249Z,7.50
2019-01-03T05:56:03.111Z,4.90
2019-01-03T05:57:03.106Z,6.60
2019-01-03T05:58:02.899Z,6.70
2019-01-03T05:59:02.797Z,6.10
2019-01-03T06:00:02.707Z,8.30
2019-01-03T06:01:02.585Z,7.80
2019-01-03T06:02:02.478Z,7.10
2019-01-03T06:03:02.372Z,5.80
2019-01-03T06:04:02.394Z,9.50
2019-01-03T06:05:02.179Z,6.70
2019-01-03T06:06:02.060Z,5.50
2019-01-03T06:07:01.951Z,5.90
2019-01-03T06:08:01.848Z,7.30
2019-01-03T06:09:01.746Z,7.80
2019-01-03T06:10:01.652Z,7.10
2019-01-03T06:11:01.632Z,6.70
2019-01-03T06:12:01.428Z,5.60
2019-01-03T06:13:01.321Z,7.20
2019-01-03T06:14:01.215Z,6.00
2019-01-03T06:15:01.132Z,6.90
2019-01-03T06:16:01.004Z,6.40
2019-01-03T06:17:00.902Z,6.20
2019-01-03T06:18:00.896Z,6.30
2019-01-03T06:19:00.693Z,7.00
2019-01-03T06:20:00.607Z,6.80
2019-01-03T06:21:00.482Z,6.20
2019-01-03T06:22:00.377Z,6.20
2019-01-03T06:23:00.268Z,7.30
2019-01-03T06:24:00.169Z,5.10
2019-01-03T06:25:00.186Z,5.90
2019-01-03T06:25:59.954Z,7.10
2019-01-03T06:26:59.849Z,5.80
2019-01-03T06:27:59.743Z,5.30
2019-01-03T06:28:59.644Z,6.80
2019-01-03T06:29:59.537Z,5.20
2019-01-03T06:30:59.444Z,6.70
2019-01-03T06:31:59.430Z,5.90
2019-01-03T06:32:59.217Z,5.70
2019-01-03T06:33:59.118Z,6.00
2019-01-03T06:34:59.011Z,7.20
2019-01-03T06:35:58.921Z,6.80
2019-01-03T06:36:58.802Z,6.60
2019-01-03T06:37:58.692Z,5.90
2019-01-03T06:38:58.689Z,7.60
2019-01-03T06:39:58.484Z,5.80
2019-01-03T06:40:58.394Z,7.30
2019-01-03T06:41:58.268Z,5.60
2019-01-03T06:42:58.167Z,7.10
2019-01-03T06:43:58.065Z,5.00
2019-01-03T06:44:57.960Z,7.30
2019-01-03T06:45:57.969Z,6.80
2019-01-03T06:46:57.744Z,5.40
2019-01-03T06:47:57.637Z,5.20
2019-01-03T06:48:57.539Z,5.80
2019-01-03T06:49:57.428Z,5.10
2019-01-03T06:50:57.340Z,5.10
2019-01-03T06:51:57.219Z,6.00
2019-01-03T06:52:57.219Z,6.60
2019-01-03T06:53:57.007Z,5.10
2019-01-03T06:54:56.903Z,4.90
2019-01-03T06:55:56.812Z,6.00
2019-01-03T06:56:56.691Z,8.80
2019-01-03T06:57:56.585Z,5.90
2019-01-03T06:58:56.482Z,9.20
2019-01-03T06:59:56.378Z,5.20
2019-01-03T07:00:56.289Z,7.20
2019-01-03T07:01:56.164Z,7.00
2019-01-03T07:02:56.062Z,6.30
2019-01-03T07:03:55.959Z,6.80
2019-01-03T07:04:55.848Z,5.50
2019-01-03T07:05:55.761Z,6.20
2019-01-03T07:06:55.637Z,4.90
2019-01-03T07:07:55.530Z,6.90
2019-01-03T07:08:55.427Z,6.50
2019-01-03T07:09:55.334Z,6.50
2019-01-03T07:10:55.235Z,6.60
2019-01-03T07:11:55.219Z,6.20
2019-01-03T07:12:55.010Z,7.10
2019-01-03T07:13:54.902Z,5.30
2019-01-03T07:14:54.795Z,5.20
2019-01-03T07:15:54.713Z,5.90
2019-01-03T07:16:54.594Z,5.20
2019-01-03T07:17:54.482Z,5.80
2019-01-03T07:18:54.376Z,7.50
2019-01-03T07:19:54.272Z,6.80
2019-01-03T07:20:54.182Z,5.60
2019-01-03T07:21:54.061Z,7.50
2019-01-03T07:22:53.956Z,5.00
2019-01-03T07:23:53.851Z,7.30
2019-01-03T07:24:53.742Z,7.40
2019-01-03T07:25:53.751Z,10.80
2019-01-03T07:26:53.532Z,9.00
2019-01-03T07:27:53.430Z,8.40
2019-01-03T07:28:53.325Z,9.10
2019-01-03T07:29:53.221Z,6.40
2019-01-03T07:30:53.127Z,7.40
2019-01-03T07:31:53.009Z,6.70
2019-01-03T07:32:53.010Z,6.30
2019-01-03T07:33:52.797Z,6.70
2019-01-03T07:34:52.693Z,5.00
2019-01-03T07:35:52.603Z,7.50
2019-01-03T07:36:52.486Z,6.20
2019-01-03T07:37:52.378Z,7.10
2019-01-03T07:38:52.396Z,7.90
2019-01-03T07:39:52.164Z,8.80
2019-01-03T07:40:52.078Z,8.00
2019-01-03T07:41:51.957Z,7.80
2019-01-03T07:42:51.854Z,7.30
2019-01-03T07:43:51.748Z,6.10
2019-01-03T07:44:51.643Z,6.70
2019-01-03T07:45:51.555Z,4.90
2019-01-03T07:46:51.436Z,6.60
2019-01-03T07:47:51.328Z,7.80
2019-01-03T07:48:51.219Z,8.70
2019-01-03T07:49:51.116Z,10.50
2019-01-03T07:50:51.028Z,8.10
2019-01-03T07:51:50.919Z,6.10
2019-01-03T07:52:50.801Z,14.20
2019-01-03T07:53:50.697Z,14.50
2019-01-03T07:54:50.598Z,10.70
2019-01-03T07:55:50.512Z,13.70
2019-01-03T07:56:50.382Z,14.20
2019-01-03T07:57:50.282Z,19.10
2019-01-03T07:58:50.171Z,18.90
2019-01-03T07:59:50.167Z,11.50
2019-01-03T08:00:49.980Z,17.90
2019-01-03T08:01:49.864Z,12.40
2019-01-03T08:02:49.752Z,8.30
2019-01-03T08:03:49.651Z,5.70
2019-01-03T08:04:49.547Z,12.30
2019-01-03T08:05:49.445Z,13.10
2019-01-03T08:06:49.349Z,9.50
2019-01-03T08:07:49.228Z,8.70
2019-01-03T08:08:49.126Z,11.80
2019-01-03T08:09:49.022Z,10.70
2019-01-03T08:10:48.930Z,10.90
2019-01-03T08:11:48.827Z,9.40
2019-01-03T08:12:48.711Z,8.70
2019-01-03T08:13:48.601Z,5.30
2019-01-03T08:14:48.498Z,7.60
2019-01-03T08:15:48.397Z,7.70
2019-01-03T08:16:48.307Z,10.00
2019-01-03T08:17:48.182Z,13.70
2019-01-03T08:18:48.077Z,14.20
2019-01-03T08:19:48.035Z,13.90
2019-01-03T08:20:47.871Z,15.80
2019-01-03T08:21:47.785Z,10.20
2019-01-03T08:22:47.660Z,9.10
2019-01-03T08:23:47.557Z,8.40
2019-01-03T08:24:47.455Z,7.80
2019-01-03T08:25:47.348Z,7.40
2019-01-03T08:26:47.261Z,7.60
2019-01-03T08:27:47.143Z,7.40
2019-01-03T08:28:47.042Z,7.90
2019-01-03T08:29:46.932Z,7.30
2019-01-03T08:30:46.838Z,6.30
2019-01-03T08:31:46.740Z,6.70
2019-01-03T08:32:46.621Z,5.40
2019-01-03T08:33:46.516Z,6.20
2019-01-03T08:34:46.517Z,6.30
2019-01-03T08:35:46.316Z,5.30
2019-01-03T08:36:46.223Z,5.40
2019-01-03T08:37:46.107Z,5.80
2019-01-03T08:38:46.004Z,6.50
2019-01-03T08:39:45.901Z,5.80
2019-01-03T08:40:45.919Z,7.10
2019-01-03T08:41:45.713Z,5.90
2019-01-03T08:42:45.606Z,5.70
2019-01-03T08:43:45.490Z,7.10
2019-01-03T08:44:45.383Z,4.80
2019-01-03T08:45:45.281Z,5.30
2019-01-03T08:46:45.192Z,7.20
2019-01-03T08:47:45.073Z,7.60
2019-01-03T08:48:44.973Z,7.70
2019-01-03T08:49:44.870Z,6.10
2019-01-03T08:50:44.766Z,7.90
2019-01-03T08:51:44.681Z,10.30
2019-01-03T08:52:44.563Z,9.60
2019-01-03T08:53:44.460Z,8.40
2019-01-03T08:54:44.361Z,8.20
2019-01-03T08:55:44.255Z,7.70
2019-01-03T08:56:44.172Z,9.00
2019-01-03T08:57:44.049Z,7.80
2019-01-03T08:58:43.994Z,9.00
2019-01-03T08:59:43.847Z,8.20
2019-01-03T09:00:43.751Z,6.30
2019-01-03T09:01:43.773Z,4.20
2019-01-03T09:02:43.546Z,5.40
2019-01-03T09:03:43.444Z,5.00
2019-01-03T09:04:43.362Z,5.00
2019-01-03T09:05:43.242Z,4.80
2019-01-03T09:06:43.154Z,5.30
2019-01-03T09:07:43.145Z,5.90
2019-01-03T09:08:42.940Z,5.90
2019-01-03T09:09:42.840Z,5.10
2019-01-03T09:10:42.739Z,4.00
2019-01-03T09:11:42.663Z,4.50
2019-01-03T09:12:42.541Z,5.20
2019-01-03T09:13:42.462Z,6.00
2019-01-03T09:14:42.337Z,4.20
2019-01-03T09:15:42.238Z,7.10
2019-01-03T09:16:42.160Z,5.70
2019-01-03T09:17:42.042Z,5.70
2019-01-03T09:18:41.945Z,7.00
2019-01-03T09:19:41.842Z,5.90
2019-01-03T09:20:41.742Z,4.20
2019-01-03T09:21:41.772Z,5.70
2019-01-03T09:22:41.559Z,4.90
2019-01-03T09:23:41.447Z,4.50
2019-01-03T09:24:41.347Z,5.10
2019-01-03T09:25:41.247Z,4.70
2019-01-03T09:26:41.161Z,4.50
2019-01-03T09:27:41.046Z,4.40
2019-01-03T09:28:41.054Z,5.30
2019-01-03T09:29:40.847Z,4.20
2019-01-03T09:30:40.753Z,4.00
2019-01-03T09:31:40.671Z,4.30
2019-01-03T09:32:40.603Z,5.40
2019-01-03T09:33:40.456Z,5.60
2019-01-03T09:34:40.354Z,5.00
2019-01-03T09:35:40.262Z,4.70
2019-01-03T09:36:40.175Z,5.70
2019-01-03T09:37:40.056Z,5.40
2019-01-03T09:38:39.986Z,4.10
2019-01-03T09:39:39.865Z,4.70
2019-01-03T09:40:39.761Z,4.20
2019-01-03T09:41:39.680Z,3.90
2019-01-03T09:42:39.567Z,4.30
2019-01-03T09:43:39.464Z,6.70
2019-01-03T09:44:39.375Z,6.80
2019-01-03T09:45:44.304Z,10.20
2019-01-03T09:46:39.196Z,6.20
2019-01-03T09:47:39.075Z,4.80
2019-01-03T09:48:38.980Z,4.80
2019-01-03T09:49:38.881Z,6.50
2019-01-03T09:50:38.783Z,4.60
2019-01-03T09:51:38.700Z,4.70
2019-01-03T09:52:38.588Z,3.70
2019-01-03T09:53:38.491Z,3.30
2019-01-03T09:54:38.394Z,2.70
2019-01-03T09:55:38.292Z,5.10
2019-01-03T09:56:38.215Z,4.20
2019-01-03T09:57:38.097Z,4.20
2019-01-03T09:58:38.002Z,5.70
2019-01-03T09:59:37.904Z,3.70
2019-01-03T10:00:37.822Z,2.50
2019-01-03T10:01:37.710Z,3.50
2019-01-03T10:02:37.625Z,3.20
2019-01-03T10:03:37.515Z,3.90
2019-01-03T10:04:37.413Z,4.10
2019-01-03T10:05:37.318Z,3.20
2019-01-03T10:06:37.225Z,3.20
2019-01-03T10:07:37.144Z,2.30
2019-01-03T10:08:37.023Z,4.00
2019-01-03T10:09:36.929Z,4.90
2019-01-03T10:10:36.827Z,5.20
2019-01-03T10:11:36.737Z,3.40
2019-01-03T10:12:36.651Z,3.30
2019-01-03T10:13:36.533Z,3.60
2019-01-03T10:14:36.436Z,4.60
2019-01-03T10:15:36.339Z,4.80
2019-01-03T10:16:36.247Z,4.20
2019-01-03T10:17:36.160Z,3.40
2019-01-03T10:18:36.046Z,3.60
2019-01-03T10:19:35.942Z,3.30
2019-01-03T10:20:35.846Z,3.80
2019-01-03T10:21:35.750Z,4.00
2019-01-03T10:22:35.672Z,4.40
2019-01-03T10:23:35.544Z,4.40
2019-01-03T10:24:35.445Z,3.40
2019-01-03T10:25:35.346Z,4.60
2019-01-03T10:26:35.244Z,4.60
2019-01-03T10:27:35.159Z,5.00
2019-01-03T10:28:35.042Z,4.20
2019-01-03T10:29:34.941Z,4.40
2019-01-03T10:30:34.954Z,3.20
2019-01-03T10:31:34.740Z,4.20
2019-01-03T10:32:34.656Z,5.10
2019-01-03T10:33:34.536Z,5.30
2019-01-03T10:34:34.433Z,11.20
2019-01-03T10:35:34.332Z,10.20
2019-01-03T10:36:34.234Z,9.70
2019-01-03T10:37:34.149Z,12.60
2019-01-03T10:38:34.033Z,14.70
2019-01-03T10:39:33.929Z,11.60
2019-01-03T10:40:33.830Z,8.70
2019-01-03T10:41:33.725Z,6.60
2019-01-03T10:42:33.645Z,4.80
2019-01-03T10:43:33.527Z,8.40
2019-01-03T10:44:33.529Z,11.90
2019-01-03T10:45:33.325Z,8.70
2019-01-03T10:46:33.225Z,10.00
2019-01-03T10:47:33.140Z,8.20
2019-01-03T10:48:33.021Z,5.50
2019-01-03T10:49:32.922Z,4.00
2019-01-03T10:50:32.827Z,4.90
2019-01-03T10:51:32.825Z,5.50
2019-01-03T10:52:32.634Z,5.10
2019-01-03T10:53:32.513Z,5.70
2019-01-03T10:54:32.412Z,4.70
2019-01-03T10:55:32.315Z,3.50
2019-01-03T10:56:32.218Z,3.70
2019-01-03T10:57:32.128Z,3.70
2019-01-03T10:58:32.120Z,4.80
2019-01-03T10:59:31.916Z,3.80
2019-01-03T11:00:31.822Z,3.80
2019-01-03T11:01:31.720Z,4.20
2019-01-03T11:02:31.636Z,2.50
2019-01-03T11:03:31.525Z,2.40
2019-01-03T11:04:31.427Z,3.30
2019-01-03T11:05:31.427Z,2.90
2019-01-03T11:06:31.226Z,3.20
2019-01-03T11:07:31.145Z,2.90
2019-01-03T11:08:31.036Z,4.10
2019-01-03T11:09:30.947Z,2.70
2019-01-03T11:10:30.839Z,3.20
2019-01-03T11:11:30.739Z,2.70
2019-01-03T11:12:30.655Z,2.40
2019-01-03T11:13:30.542Z,2.80
2019-01-03T11:14:30.447Z,2.50
2019-01-03T11:15:30.351Z,1.70
2019-01-03T11:16:30.250Z,2.30
2019-01-03T11:17:30.169Z,2.50
2019-01-03T11:18:30.156Z,2.80
2019-01-03T11:19:29.961Z,2.40
2019-01-03T11:20:29.861Z,4.50
2019-01-03T11:21:29.765Z,4.00
2019-01-03T11:22:29.682Z,3.10
2019-01-03T11:23:29.573Z,3.10
2019-01-03T11:24:29.471Z,4.10
2019-01-03T11:25:29.476Z,3.70
2019-01-03T11:26:29.272Z,4.30
2019-01-03T11:27:29.190Z,2.80
2019-01-03T11:28:29.076Z,2.30
2019-01-03T11:29:28.981Z,2.20
2019-01-03T11:30:28.882Z,3.40
2019-01-03T11:31:28.777Z,4.10
2019-01-03T11:32:28.698Z,3.40
2019-01-03T11:33:28.579Z,2.90
2019-01-03T11:34:28.476Z,2.50
2019-01-03T11:35:28.379Z,3.90
2019-01-03T11:36:28.286Z,4.40
2019-01-03T11:37:28.190Z,3.40
2019-01-03T11:38:28.078Z,5.30
2019-01-03T11:39:27.981Z,4.10
2019-01-03T11:40:27.875Z,3.60
2019-01-03T11:41:27.772Z,3.30
2019-01-03T11:42:27.685Z,3.20
2019-01-03T11:43:27.570Z,4.00
2019-01-03T11:44:27.469Z,3.90
2019-01-03T11:45:27.468Z,4.10
2019-01-03T11:46:27.267Z,2.10
2019-01-03T11:47:27.186Z,3.40
2019-01-03T11:48:27.061Z,3.60
2019-01-03T11:49:26.967Z,4.60
2019-01-03T11:50:26.861Z,4.20
2019-01-03T11:51:26.757Z,4.60
2019-01-03T11:52:26.759Z,4.10
2019-01-03T11:53:26.570Z,4.10
2019-01-03T11:54:26.454Z,4.60
2019-01-03T11:55:26.356Z,4.00
2019-01-03T11:56:26.255Z,4.40
2019-01-03T11:57:26.144Z,3.40
2019-01-03T11:58:26.170Z,3.80
2019-01-03T11:59:25.941Z,4.60
2019-01-03T12:00:25.843Z,5.10
2019-01-03T12:01:25.740Z,3.50
2019-01-03T12:02:25.885Z,3.60
2019-01-03T12:03:25.551Z,4.00
2019-01-03T12:04:25.442Z,4.50
2019-01-03T12:05:25.331Z,3.10
2019-01-03T12:06:25.226Z,4.00
2019-01-03T12:07:25.129Z,4.30
2019-01-03T12:08:25.038Z,4.20
2019-01-03T12:09:24.917Z,4.50
2019-01-03T12:10:24.819Z,5.10
2019-01-03T12:11:24.717Z,4.90
2019-01-03T12:12:24.618Z,4.60
2019-01-03T12:13:24.524Z,2.80
2019-01-03T12:14:24.412Z,3.10
2019-01-03T12:15:24.307Z,3.90
2019-01-03T12:16:24.202Z,3.50
2019-01-03T12:17:24.102Z,3.30
2019-01-03T12:18:24.015Z,3.50
2019-01-03T12:19:23.997Z,2.20
2019-01-03T12:20:23.795Z,1.80
2019-01-03T12:21:23.688Z,2.30
2019-01-03T12:22:23.585Z,2.90
2019-01-03T12:23:23.501Z,3.10
2019-01-03T12:24:23.384Z,3.20
2019-01-03T12:25:23.301Z,2.50
2019-01-03T12:26:23.176Z,3.10
2019-01-03T12:27:23.081Z,2.70
2019-01-03T12:28:22.992Z,3.90
2019-01-03T12:29:22.871Z,2.60
2019-01-03T12:30:22.763Z,3.10
2019-01-03T12:31:22.660Z,2.30
2019-01-03T12:32:22.662Z,4.20
2019-01-03T12:33:22.473Z,2.90
2019-01-03T12:34:22.367Z,3.00
2019-01-03T12:35:22.249Z,3.70
2019-01-03T12:36:22.149Z,3.50
2019-01-03T12:37:22.042Z,2.90
2019-01-03T12:38:21.959Z,3.50
2019-01-03T12:39:21.840Z,5.00
2019-01-03T12:40:21.736Z,3.80
2019-01-03T12:41:21.633Z,3.50
2019-01-03T12:42:21.529Z,3.50
2019-01-03T12:43:21.448Z,2.90
2019-01-03T12:44:21.322Z,3.60
2019-01-03T12:45:21.219Z,2.90
2019-01-03T12:46:21.116Z,3.60
2019-01-03T12:47:21.012Z,4.20
2019-01-03T12:48:20.926Z,3.50
2019-01-03T12:49:20.809Z,3.60
2019-01-03T12:50:20.703Z,3.70
2019-01-03T12:51:20.605Z,3.70
2019-01-03T12:52:20.496Z,3.90
2019-01-03T12:53:20.414Z,1.90
2019-01-03T12:54:20.290Z,3.30
2019-01-03T12:55:20.190Z,3.40
2019-01-03T12:56:20.088Z,3.30
2019-01-03T12:57:19.983Z,4.50
2019-01-03T12:58:19.893Z,3.40
2019-01-03T12:59:19.779Z,4.80
2019-01-03T13:00:19.777Z,4.60
2019-01-03T13:01:19.569Z,3.20
2019-01-03T13:02:19.468Z,2.80
2019-01-03T13:03:19.402Z,2.80
2019-01-03T13:04:19.260Z,4.30
2019-01-03T13:05:19.194Z,3.80
2019-01-03T13:06:21.057Z,3.20
2019-01-03T13:07:19.059Z,4.50
2019-01-03T13:08:18.863Z,3.60
2019-01-03T13:09:18.746Z,3.90
2019-01-03T13:10:18.636Z,3.90
2019-01-03T13:11:18.534Z,3.40
2019-01-03T13:12:18.430Z,3.50
2019-01-03T13:13:18.347Z,3.50
2019-01-03T13:14:18.323Z,4.40
2019-01-03T13:15:18.121Z,3.20
2019-01-03T13:16:18.020Z,5.50